sensor_id;sensor_type;location;lat;lon;timestamp;temperature;humidity
1011;DHT22;494;48.744;10.106;2022-09-09T00:00:44;15.00;49.80
1011;DHT22;494;48.744;10.106;2022-09-09T00:03:21;15.00;49.50
1011;DHT22;494;48.744;10.106;2022-09-09T00:05:59;15.00;49.20
1011;DHT22;494;48.744;10.106;2022-09-09T00:08:42;15.00;49.30
1011;DHT22;494;48.744;10.106;2022-09-09T00:11:23;15.00;49.00
1011;DHT22;494;48.744;10.106;2022-09-09T00:14:00;15.00;49.00
1011;DHT22;494;48.744;10.106;2022-09-09T00:16:39;15.00;48.70
1011;DHT22;494;48.744;10.106;2022-09-09T00:19:20;15.10;48.60
1011;DHT22;494;48.744;10.106;2022-09-09T00:22:00;15.10;48.50
1011;DHT22;494;48.744;10.106;2022-09-09T00:24:45;15.10;48.20
1011;DHT22;494;48.744;10.106;2022-09-09T00:27:22;15.00;48.10
1011;DHT22;494;48.744;10.106;2022-09-09T00:30:00;15.00;48.20
1011;DHT22;494;48.744;10.106;2022-09-09T00:32:41;15.00;48.10
1011;DHT22;494;48.744;10.106;2022-09-09T00:35:18;15.00;48.20
1011;DHT22;494;48.744;10.106;2022-09-09T00:37:53;15.00;48.50
1011;DHT22;494;48.744;10.106;2022-09-09T00:40:35;15.00;48.50
1011;DHT22;494;48.744;10.106;2022-09-09T00:43:20;15.00;48.50
1011;DHT22;494;48.744;10.106;2022-09-09T00:46:18;15.00;48.40
1011;DHT22;494;48.744;10.106;2022-09-09T00:49:04;15.00;49.20
1011;DHT22;494;48.744;10.106;2022-09-09T00:51:52;14.90;49.20
1011;DHT22;494;48.744;10.106;2022-09-09T00:54:44;14.70;49.40
1011;DHT22;494;48.744;10.106;2022-09-09T00:57:26;14.80;49.50
1011;DHT22;494;48.744;10.106;2022-09-09T01:00:16;14.80;48.90
1011;DHT22;494;48.744;10.106;2022-09-09T01:02:53;14.70;48.30
1011;DHT22;494;48.744;10.106;2022-09-09T01:05:35;14.70;48.40
1011;DHT22;494;48.744;10.106;2022-09-09T01:08:30;14.70;48.50
1011;DHT22;494;48.744;10.106;2022-09-09T01:11:16;14.70;48.70
1011;DHT22;494;48.744;10.106;2022-09-09T01:13:55;14.70;49.00
1011;DHT22;494;48.744;10.106;2022-09-09T01:16:38;14.70;48.80
1011;DHT22;494;48.744;10.106;2022-09-09T01:19:15;14.60;48.20
1011;DHT22;494;48.744;10.106;2022-09-09T01:21:56;14.50;48.20
1011;DHT22;494;48.744;10.106;2022-09-09T01:24:38;14.50;48.60
1011;DHT22;494;48.744;10.106;2022-09-09T01:27:13;14.60;48.70
1011;DHT22;494;48.744;10.106;2022-09-09T01:29:44;14.50;48.60
1011;DHT22;494;48.744;10.106;2022-09-09T01:32:39;14.50;48.90
1011;DHT22;494;48.744;10.106;2022-09-09T01:35:14;14.50;48.90
1011;DHT22;494;48.744;10.106;2022-09-09T01:37:48;14.40;49.30
1011;DHT22;494;48.744;10.106;2022-09-09T01:40:17;14.40;48.60
1011;DHT22;494;48.744;10.106;2022-09-09T01:42:47;14.50;48.80
1011;DHT22;494;48.744;10.106;2022-09-09T01:45:16;14.40;48.80
1011;DHT22;494;48.744;10.106;2022-09-09T01:47:45;14.50;49.00
1011;DHT22;494;48.744;10.106;2022-09-09T01:50:16;14.40;48.90
1011;DHT22;494;48.744;10.106;2022-09-09T01:52:47;14.40;48.80
1011;DHT22;494;48.744;10.106;2022-09-09T01:55:23;14.50;48.90
1011;DHT22;494;48.744;10.106;2022-09-09T01:58:09;14.40;48.90
1011;DHT22;494;48.744;10.106;2022-09-09T02:00:55;14.50;49.20
1011;DHT22;494;48.744;10.106;2022-09-09T02:03:32;14.50;49.20
1011;DHT22;494;48.744;10.106;2022-09-09T02:06:11;14.50;49.00
1011;DHT22;494;48.744;10.106;2022-09-09T02:08:52;14.40;48.80
1011;DHT22;494;48.744;10.106;2022-09-09T02:11:24;14.40;48.80
1011;DHT22;494;48.744;10.106;2022-09-09T02:14:00;14.40;48.80
1011;DHT22;494;48.744;10.106;2022-09-09T02:16:34;14.40;48.90
1011;DHT22;494;48.744;10.106;2022-09-09T02:19:11;14.30;49.00
1011;DHT22;494;48.744;10.106;2022-09-09T02:21:45;14.40;49.20
1011;DHT22;494;48.744;10.106;2022-09-09T02:24:15;14.40;49.40
1011;DHT22;494;48.744;10.106;2022-09-09T02:26:46;14.40;49.40
1011;DHT22;494;48.744;10.106;2022-09-09T02:29:23;14.40;49.40
1011;DHT22;494;48.744;10.106;2022-09-09T02:31:57;14.40;49.20
1011;DHT22;494;48.744;10.106;2022-09-09T02:34:31;14.40;49.00
1011;DHT22;494;48.744;10.106;2022-09-09T02:37:05;14.30;48.80
1011;DHT22;494;48.744;10.106;2022-09-09T02:39:35;14.30;48.70
1011;DHT22;494;48.744;10.106;2022-09-09T02:42:05;14.30;48.70
1011;DHT22;494;48.744;10.106;2022-09-09T02:44:35;14.20;49.10
1011;DHT22;494;48.744;10.106;2022-09-09T02:47:16;14.10;50.00
1011;DHT22;494;48.744;10.106;2022-09-09T02:50:05;14.20;49.90
1011;DHT22;494;48.744;10.106;2022-09-09T02:52:51;14.20;49.90
1011;DHT22;494;48.744;10.106;2022-09-09T02:55:37;14.20;49.80
1011;DHT22;494;48.744;10.106;2022-09-09T02:58:10;14.20;49.90
1011;DHT22;494;48.744;10.106;2022-09-09T03:00:46;14.20;49.80
1011;DHT22;494;48.744;10.106;2022-09-09T03:03:18;14.20;49.80
1011;DHT22;494;48.744;10.106;2022-09-09T03:05:49;14.20;49.70
1011;DHT22;494;48.744;10.106;2022-09-09T03:08:18;14.30;49.80
1011;DHT22;494;48.744;10.106;2022-09-09T03:10:46;14.30;49.70
1011;DHT22;494;48.744;10.106;2022-09-09T03:13:15;14.30;49.60
1011;DHT22;494;48.744;10.106;2022-09-09T03:15:47;14.30;49.40
1011;DHT22;494;48.744;10.106;2022-09-09T03:18:16;14.30;49.40
1011;DHT22;494;48.744;10.106;2022-09-09T03:20:46;14.30;49.50
1011;DHT22;494;48.744;10.106;2022-09-09T03:23:16;14.30;49.20
1011;DHT22;494;48.744;10.106;2022-09-09T03:25:48;14.30;49.50
1011;DHT22;494;48.744;10.106;2022-09-09T03:28:17;14.30;49.50
1011;DHT22;494;48.744;10.106;2022-09-09T03:30:47;14.30;49.00
1011;DHT22;494;48.744;10.106;2022-09-09T03:33:15;14.30;49.00
1011;DHT22;494;48.744;10.106;2022-09-09T03:35:45;14.30;48.50
1011;DHT22;494;48.744;10.106;2022-09-09T03:38:15;14.30;48.60
1011;DHT22;494;48.744;10.106;2022-09-09T03:40:50;14.30;48.50
1011;DHT22;494;48.744;10.106;2022-09-09T03:43:22;14.20;48.80
1011;DHT22;494;48.744;10.106;2022-09-09T03:45:53;14.20;48.50
1011;DHT22;494;48.744;10.106;2022-09-09T03:48:24;14.10;48.30
1011;DHT22;494;48.744;10.106;2022-09-09T03:50:55;14.10;48.40
1011;DHT22;494;48.744;10.106;2022-09-09T03:53:25;14.10;48.60
1011;DHT22;494;48.744;10.106;2022-09-09T03:55:55;14.10;48.40
1011;DHT22;494;48.744;10.106;2022-09-09T03:58:27;14.20;48.50
1011;DHT22;494;48.744;10.106;2022-09-09T04:01:00;14.20;48.40
1011;DHT22;494;48.744;10.106;2022-09-09T04:03:31;14.30;48.60
1011;DHT22;494;48.744;10.106;2022-09-09T04:06:00;14.20;48.60
1011;DHT22;494;48.744;10.106;2022-09-09T04:08:31;14.20;48.60
1011;DHT22;494;48.744;10.106;2022-09-09T04:11:00;14.20;48.90
1011;DHT22;494;48.744;10.106;2022-09-09T04:13:34;14.30;48.80
1011;DHT22;494;48.744;10.106;2022-09-09T04:16:06;14.30;48.80
1011;DHT22;494;48.744;10.106;2022-09-09T04:18:35;14.40;48.70
1011;DHT22;494;48.744;10.106;2022-09-09T04:21:05;14.40;48.80
1011;DHT22;494;48.744;10.106;2022-09-09T04:23:34;14.40;48.80
1011;DHT22;494;48.744;10.106;2022-09-09T04:26:03;14.50;48.80
1011;DHT22;494;48.744;10.106;2022-09-09T04:28:35;14.60;48.60
1011;DHT22;494;48.744;10.106;2022-09-09T04:31:08;14.50;48.70
1011;DHT22;494;48.744;10.106;2022-09-09T04:33:38;14.60;48.90
1011;DHT22;494;48.744;10.106;2022-09-09T04:36:07;14.60;49.00
1011;DHT22;494;48.744;10.106;2022-09-09T04:38:36;14.60;49.40
1011;DHT22;494;48.744;10.106;2022-09-09T04:41:05;14.60;50.30
1011;DHT22;494;48.744;10.106;2022-09-09T04:43:34;14.60;51.10
1011;DHT22;494;48.744;10.106;2022-09-09T04:46:02;14.50;52.70
1011;DHT22;494;48.744;10.106;2022-09-09T04:48:33;14.50;52.80
1011;DHT22;494;48.744;10.106;2022-09-09T04:51:04;14.30;53.30
1011;DHT22;494;48.744;10.106;2022-09-09T04:53:33;14.10;54.50
1011;DHT22;494;48.744;10.106;2022-09-09T04:56:04;14.10;55.10
1011;DHT22;494;48.744;10.106;2022-09-09T04:58:34;14.00;55.50
1011;DHT22;494;48.744;10.106;2022-09-09T05:01:05;14.00;55.80
1011;DHT22;494;48.744;10.106;2022-09-09T05:03:36;14.00;56.00
1011;DHT22;494;48.744;10.106;2022-09-09T05:06:06;13.90;56.30
1011;DHT22;494;48.744;10.106;2022-09-09T05:08:37;13.80;56.60
1011;DHT22;494;48.744;10.106;2022-09-09T05:11:14;13.60;57.50
1011;DHT22;494;48.744;10.106;2022-09-09T05:13:44;13.60;58.00
1011;DHT22;494;48.744;10.106;2022-09-09T05:16:13;13.60;58.50
1011;DHT22;494;48.744;10.106;2022-09-09T05:18:44;13.60;58.80
1011;DHT22;494;48.744;10.106;2022-09-09T05:21:18;13.50;59.10
1011;DHT22;494;48.744;10.106;2022-09-09T05:23:48;13.60;59.40
1011;DHT22;494;48.744;10.106;2022-09-09T05:26:18;13.70;59.60
1011;DHT22;494;48.744;10.106;2022-09-09T05:28:48;13.80;59.60
1011;DHT22;494;48.744;10.106;2022-09-09T05:31:18;13.90;59.50
1011;DHT22;494;48.744;10.106;2022-09-09T05:33:48;14.00;59.40
1011;DHT22;494;48.744;10.106;2022-09-09T05:36:18;14.00;59.10
1011;DHT22;494;48.744;10.106;2022-09-09T05:38:48;14.10;58.80
1011;DHT22;494;48.744;10.106;2022-09-09T05:41:17;14.10;58.60
1011;DHT22;494;48.744;10.106;2022-09-09T05:43:47;14.10;58.70
1011;DHT22;494;48.744;10.106;2022-09-09T05:46:17;14.20;58.80
1011;DHT22;494;48.744;10.106;2022-09-09T05:48:49;14.20;58.70
1011;DHT22;494;48.744;10.106;2022-09-09T05:51:20;14.20;58.70
1011;DHT22;494;48.744;10.106;2022-09-09T05:53:51;14.30;58.90
1011;DHT22;494;48.744;10.106;2022-09-09T05:56:23;14.30;58.80
1011;DHT22;494;48.744;10.106;2022-09-09T05:58:53;14.40;58.90
1011;DHT22;494;48.744;10.106;2022-09-09T06:01:23;14.40;58.50
1011;DHT22;494;48.744;10.106;2022-09-09T06:03:55;14.50;58.50
1011;DHT22;494;48.744;10.106;2022-09-09T06:06:26;14.60;58.50
1011;DHT22;494;48.744;10.106;2022-09-09T06:08:56;14.70;58.40
1011;DHT22;494;48.744;10.106;2022-09-09T06:11:28;14.80;57.90
1011;DHT22;494;48.744;10.106;2022-09-09T06:13:58;14.90;57.90
1011;DHT22;494;48.744;10.106;2022-09-09T06:16:29;15.00;58.20
1011;DHT22;494;48.744;10.106;2022-09-09T06:19:01;15.10;57.90
1011;DHT22;494;48.744;10.106;2022-09-09T06:21:31;15.20;57.90
1011;DHT22;494;48.744;10.106;2022-09-09T06:24:03;15.10;57.90
1011;DHT22;494;48.744;10.106;2022-09-09T06:26:33;15.20;58.50
1011;DHT22;494;48.744;10.106;2022-09-09T06:29:04;15.40;59.10
1011;DHT22;494;48.744;10.106;2022-09-09T06:31:34;15.60;59.10
1011;DHT22;494;48.744;10.106;2022-09-09T06:34:06;15.90;59.50
1011;DHT22;494;48.744;10.106;2022-09-09T06:36:37;16.10;58.40
1011;DHT22;494;48.744;10.106;2022-09-09T06:39:07;16.10;57.00
1011;DHT22;494;48.744;10.106;2022-09-09T06:41:41;16.10;56.20
1011;DHT22;494;48.744;10.106;2022-09-09T06:44:10;16.10;56.50
1011;DHT22;494;48.744;10.106;2022-09-09T06:46:39;16.30;56.90
1011;DHT22;494;48.744;10.106;2022-09-09T06:49:09;16.40;57.40
1011;DHT22;494;48.744;10.106;2022-09-09T06:51:39;16.60;57.20
1011;DHT22;494;48.744;10.106;2022-09-09T06:54:10;16.60;56.40
1011;DHT22;494;48.744;10.106;2022-09-09T06:56:40;16.60;56.20
1011;DHT22;494;48.744;10.106;2022-09-09T06:59:11;16.70;55.60
1011;DHT22;494;48.744;10.106;2022-09-09T07:01:41;16.70;55.50
1011;DHT22;494;48.744;10.106;2022-09-09T07:04:13;16.80;56.20
1011;DHT22;494;48.744;10.106;2022-09-09T07:06:43;16.90;56.70
1011;DHT22;494;48.744;10.106;2022-09-09T07:09:14;17.00;56.80
1011;DHT22;494;48.744;10.106;2022-09-09T07:11:45;17.20;57.10
1011;DHT22;494;48.744;10.106;2022-09-09T07:14:16;17.40;56.30
1011;DHT22;494;48.744;10.106;2022-09-09T07:16:45;17.60;56.10
1011;DHT22;494;48.744;10.106;2022-09-09T07:19:15;17.90;54.60
1011;DHT22;494;48.744;10.106;2022-09-09T07:21:44;18.30;53.80
1011;DHT22;494;48.744;10.106;2022-09-09T07:24:12;18.60;52.30
1011;DHT22;494;48.744;10.106;2022-09-09T07:26:42;18.90;50.80
1011;DHT22;494;48.744;10.106;2022-09-09T07:29:12;19.00;50.20
1011;DHT22;494;48.744;10.106;2022-09-09T07:31:46;19.30;50.10
1011;DHT22;494;48.744;10.106;2022-09-09T07:34:16;19.50;49.10
1011;DHT22;494;48.744;10.106;2022-09-09T07:36:45;19.80;48.30
1011;DHT22;494;48.744;10.106;2022-09-09T07:39:14;20.20;47.40
1011;DHT22;494;48.744;10.106;2022-09-09T07:41:45;20.40;45.50
1011;DHT22;494;48.744;10.106;2022-09-09T07:44:17;20.60;45.30
1011;DHT22;494;48.744;10.106;2022-09-09T07:46:49;20.90;45.60
1011;DHT22;494;48.744;10.106;2022-09-09T07:49:19;21.10;43.50
1011;DHT22;494;48.744;10.106;2022-09-09T07:51:57;21.30;42.70
1011;DHT22;494;48.744;10.106;2022-09-09T07:54:30;21.70;42.50
1011;DHT22;494;48.744;10.106;2022-09-09T07:56:59;22.00;41.60
1011;DHT22;494;48.744;10.106;2022-09-09T07:59:27;22.20;38.40
1011;DHT22;494;48.744;10.106;2022-09-09T08:02:00;22.30;38.10
1011;DHT22;494;48.744;10.106;2022-09-09T08:04:30;22.40;38.80
1011;DHT22;494;48.744;10.106;2022-09-09T08:07:00;22.60;38.50
1011;DHT22;494;48.744;10.106;2022-09-09T08:09:30;22.90;37.10
1011;DHT22;494;48.744;10.106;2022-09-09T08:12:00;23.10;36.10
1011;DHT22;494;48.744;10.106;2022-09-09T08:14:29;23.30;36.40
1011;DHT22;494;48.744;10.106;2022-09-09T08:16:58;23.40;32.30
1011;DHT22;494;48.744;10.106;2022-09-09T08:19:26;23.10;27.80
1011;DHT22;494;48.744;10.106;2022-09-09T08:21:57;22.70;28.90
1011;DHT22;494;48.744;10.106;2022-09-09T08:24:26;22.60;30.90
1011;DHT22;494;48.744;10.106;2022-09-09T08:26:55;22.60;29.70
1011;DHT22;494;48.744;10.106;2022-09-09T08:29:23;22.80;29.50
1011;DHT22;494;48.744;10.106;2022-09-09T08:31:53;22.90;30.10
1011;DHT22;494;48.744;10.106;2022-09-09T08:34:24;22.90;27.40
1011;DHT22;494;48.744;10.106;2022-09-09T08:36:54;23.10;27.50
1011;DHT22;494;48.744;10.106;2022-09-09T08:39:24;23.00;27.00
1011;DHT22;494;48.744;10.106;2022-09-09T08:45:20;23.40;26.30
1011;DHT22;494;48.744;10.106;2022-09-09T08:48:07;23.50;25.50
1011;DHT22;494;48.744;10.106;2022-09-09T08:50:45;23.60;25.50
1011;DHT22;494;48.744;10.106;2022-09-09T08:53:21;23.70;24.80
1011;DHT22;494;48.744;10.106;2022-09-09T08:55:55;23.70;25.60
1011;DHT22;494;48.744;10.106;2022-09-09T08:58:28;23.70;26.00
1011;DHT22;494;48.744;10.106;2022-09-09T09:01:09;23.60;24.90
1011;DHT22;494;48.744;10.106;2022-09-09T09:03:56;23.60;26.90
1011;DHT22;494;48.744;10.106;2022-09-09T09:06:40;23.80;24.50
1011;DHT22;494;48.744;10.106;2022-09-09T09:09:20;23.90;25.70
1011;DHT22;494;48.744;10.106;2022-09-09T09:11:56;23.60;25.70
1011;DHT22;494;48.744;10.106;2022-09-09T09:14:28;23.40;26.20
1011;DHT22;494;48.744;10.106;2022-09-09T09:17:02;23.20;27.10
1011;DHT22;494;48.744;10.106;2022-09-09T09:19:34;23.30;27.30
1011;DHT22;494;48.744;10.106;2022-09-09T09:22:13;23.30;27.80
1011;DHT22;494;48.744;10.106;2022-09-09T09:24:51;23.30;26.70
1011;DHT22;494;48.744;10.106;2022-09-09T09:27:31;23.50;26.40
1011;DHT22;494;48.744;10.106;2022-09-09T09:30:13;23.70;26.00
1011;DHT22;494;48.744;10.106;2022-09-09T09:33:02;24.10;25.70
1011;DHT22;494;48.744;10.106;2022-09-09T09:35:36;24.50;23.00
1011;DHT22;494;48.744;10.106;2022-09-09T09:38:16;25.10;21.90
1011;DHT22;494;48.744;10.106;2022-09-09T09:41:06;25.50;19.60
1011;DHT22;494;48.744;10.106;2022-09-09T09:43:39;25.80;19.60
1011;DHT22;494;48.744;10.106;2022-09-09T09:46:19;26.10;19.70
1011;DHT22;494;48.744;10.106;2022-09-09T09:48:56;26.20;19.30
1011;DHT22;494;48.744;10.106;2022-09-09T09:51:26;26.10;18.70
1011;DHT22;494;48.744;10.106;2022-09-09T09:54:13;25.90;19.40
1011;DHT22;494;48.744;10.106;2022-09-09T09:56:46;25.80;18.50
1011;DHT22;494;48.744;10.106;2022-09-09T09:59:22;25.70;19.60
1011;DHT22;494;48.744;10.106;2022-09-09T10:02:15;25.70;19.60
1011;DHT22;494;48.744;10.106;2022-09-09T10:04:46;25.80;19.30
1011;DHT22;494;48.744;10.106;2022-09-09T10:07:19;25.60;19.20
1011;DHT22;494;48.744;10.106;2022-09-09T10:09:52;25.40;20.20
1011;DHT22;494;48.744;10.106;2022-09-09T10:12:33;25.20;20.00
1011;DHT22;494;48.744;10.106;2022-09-09T10:15:26;25.10;20.10
1011;DHT22;494;48.744;10.106;2022-09-09T10:18:13;25.00;20.60
1011;DHT22;494;48.744;10.106;2022-09-09T10:20:56;25.10;20.00
1011;DHT22;494;48.744;10.106;2022-09-09T10:23:43;25.10;18.90
1011;DHT22;494;48.744;10.106;2022-09-09T10:26:32;25.00;19.50
1011;DHT22;494;48.744;10.106;2022-09-09T10:29:28;24.90;19.60
1011;DHT22;494;48.744;10.106;2022-09-09T10:32:20;24.80;18.90
1011;DHT22;494;48.744;10.106;2022-09-09T10:35:10;24.90;19.20
1011;DHT22;494;48.744;10.106;2022-09-09T10:37:53;24.80;18.80
1011;DHT22;494;48.744;10.106;2022-09-09T10:41:14;25.00;19.50
1011;DHT22;494;48.744;10.106;2022-09-09T10:44:16;25.40;18.40
1011;DHT22;494;48.744;10.106;2022-09-09T10:50:18;26.20;17.40
1011;DHT22;494;48.744;10.106;2022-09-09T10:53:24;26.80;17.50
1011;DHT22;494;48.744;10.106;2022-09-09T10:56:06;27.70;16.60
1011;DHT22;494;48.744;10.106;2022-09-09T10:58:42;28.30;14.40
1011;DHT22;494;48.744;10.106;2022-09-09T11:01:20;28.60;13.40
1011;DHT22;494;48.744;10.106;2022-09-09T11:03:56;28.60;13.90
1011;DHT22;494;48.744;10.106;2022-09-09T11:06:34;27.80;14.10
1011;DHT22;494;48.744;10.106;2022-09-09T11:09:10;26.90;15.70
1011;DHT22;494;48.744;10.106;2022-09-09T11:11:48;26.40;14.80
1011;DHT22;494;48.744;10.106;2022-09-09T11:14:27;25.90;16.20
1011;DHT22;494;48.744;10.106;2022-09-09T11:17:08;25.40;17.50
1011;DHT22;494;48.744;10.106;2022-09-09T11:19:43;25.30;18.90
1011;DHT22;494;48.744;10.106;2022-09-09T11:22:18;25.30;18.50
1011;DHT22;494;48.744;10.106;2022-09-09T11:25:01;25.20;18.80
1011;DHT22;494;48.744;10.106;2022-09-09T11:27:40;25.10;18.80
1011;DHT22;494;48.744;10.106;2022-09-09T11:30:19;25.50;18.30
1011;DHT22;494;48.744;10.106;2022-09-09T11:36:43;26.90;15.30
1011;DHT22;494;48.744;10.106;2022-09-09T11:42:37;26.80;15.00
1011;DHT22;494;48.744;10.106;2022-09-09T11:45:15;26.20;14.50
1011;DHT22;494;48.744;10.106;2022-09-09T11:47:54;25.80;17.60
1011;DHT22;494;48.744;10.106;2022-09-09T11:50:32;25.30;20.90
1011;DHT22;494;48.744;10.106;2022-09-09T11:53:17;25.00;27.40
1011;DHT22;494;48.744;10.106;2022-09-09T11:56:11;24.50;32.80
1011;DHT22;494;48.744;10.106;2022-09-09T11:58:44;23.90;33.60
1011;DHT22;494;48.744;10.106;2022-09-09T12:01:41;23.90;36.20
1011;DHT22;494;48.744;10.106;2022-09-09T12:04:30;23.80;35.70
1011;DHT22;494;48.744;10.106;2022-09-09T12:07:20;23.60;35.60
1011;DHT22;494;48.744;10.106;2022-09-09T12:09:59;23.80;38.50
1011;DHT22;494;48.744;10.106;2022-09-09T12:12:33;23.80;35.10
1011;DHT22;494;48.744;10.106;2022-09-09T12:15:25;23.40;39.60
1011;DHT22;494;48.744;10.106;2022-09-09T12:17:57;23.10;42.20
1011;DHT22;494;48.744;10.106;2022-09-09T12:20:34;22.90;42.90
1011;DHT22;494;48.744;10.106;2022-09-09T12:23:22;22.80;42.70
1011;DHT22;494;48.744;10.106;2022-09-09T12:26:24;22.90;41.60
1011;DHT22;494;48.744;10.106;2022-09-09T12:29:06;23.40;38.00
1011;DHT22;494;48.744;10.106;2022-09-09T12:31:46;23.70;36.10
1011;DHT22;494;48.744;10.106;2022-09-09T12:34:28;23.40;36.80
1011;DHT22;494;48.744;10.106;2022-09-09T12:37:06;23.20;36.00
1011;DHT22;494;48.744;10.106;2022-09-09T12:39:50;23.70;39.90
1011;DHT22;494;48.744;10.106;2022-09-09T12:42:25;24.50;27.70
1011;DHT22;494;48.744;10.106;2022-09-09T12:44:56;25.50;23.20
1011;DHT22;494;48.744;10.106;2022-09-09T12:47:30;26.00;20.40
1011;DHT22;494;48.744;10.106;2022-09-09T12:50:16;26.60;17.00
1011;DHT22;494;48.744;10.106;2022-09-09T12:52:47;27.10;17.50
1011;DHT22;494;48.744;10.106;2022-09-09T12:55:23;27.60;14.90
1011;DHT22;494;48.744;10.106;2022-09-09T12:57:58;27.90;17.60
1011;DHT22;494;48.744;10.106;2022-09-09T13:00:32;27.90;13.40
1011;DHT22;494;48.744;10.106;2022-09-09T13:03:13;27.80;13.40
1011;DHT22;494;48.744;10.106;2022-09-09T13:05:45;28.00;13.40
1011;DHT22;494;48.744;10.106;2022-09-09T13:08:15;28.20;13.90
1011;DHT22;494;48.744;10.106;2022-09-09T13:10:49;28.50;14.10
1011;DHT22;494;48.744;10.106;2022-09-09T13:13:33;28.70;14.50
1011;DHT22;494;48.744;10.106;2022-09-09T13:16:05;28.90;12.80
1011;DHT22;494;48.744;10.106;2022-09-09T13:18:44;29.30;13.70
1011;DHT22;494;48.744;10.106;2022-09-09T13:21:13;29.70;11.10
1011;DHT22;494;48.744;10.106;2022-09-09T13:23:42;29.40;11.80
1011;DHT22;494;48.744;10.106;2022-09-09T13:26:22;29.30;11.80
1011;DHT22;494;48.744;10.106;2022-09-09T13:28:54;29.40;11.60
1011;DHT22;494;48.744;10.106;2022-09-09T13:31:37;29.40;10.70
1011;DHT22;494;48.744;10.106;2022-09-09T13:34:11;29.20;10.20
1011;DHT22;494;48.744;10.106;2022-09-09T13:36:41;28.90;9.80
1011;DHT22;494;48.744;10.106;2022-09-09T13:39:17;29.10;9.60
1011;DHT22;494;48.744;10.106;2022-09-09T13:41:46;29.30;8.90
1011;DHT22;494;48.744;10.106;2022-09-09T13:44:21;29.80;8.30
1011;DHT22;494;48.744;10.106;2022-09-09T13:47:04;30.10;8.60
1011;DHT22;494;48.744;10.106;2022-09-09T13:49:37;31.00;8.20
1011;DHT22;494;48.744;10.106;2022-09-09T13:52:10;31.20;6.20
1011;DHT22;494;48.744;10.106;2022-09-09T13:54:41;30.80;6.50
1011;DHT22;494;48.744;10.106;2022-09-09T13:57:15;30.70;6.90
1011;DHT22;494;48.744;10.106;2022-09-09T13:59:46;30.00;7.10
1011;DHT22;494;48.744;10.106;2022-09-09T14:02:32;29.20;8.70
1011;DHT22;494;48.744;10.106;2022-09-09T14:05:02;28.10;9.40
1011;DHT22;494;48.744;10.106;2022-09-09T14:07:32;27.30;10.30
1011;DHT22;494;48.744;10.106;2022-09-09T14:10:01;27.20;11.50
1011;DHT22;494;48.744;10.106;2022-09-09T14:12:30;27.00;11.40
1011;DHT22;494;48.744;10.106;2022-09-09T14:15:00;26.80;11.70
1011;DHT22;494;48.744;10.106;2022-09-09T14:17:29;26.90;12.00
1011;DHT22;494;48.744;10.106;2022-09-09T14:20:01;28.10;10.60
1011;DHT22;494;48.744;10.106;2022-09-09T14:22:30;29.60;8.50
1011;DHT22;494;48.744;10.106;2022-09-09T14:25:00;31.00;7.90
1011;DHT22;494;48.744;10.106;2022-09-09T14:27:29;31.90;6.60
1011;DHT22;494;48.744;10.106;2022-09-09T14:29:57;32.40;5.50
1011;DHT22;494;48.744;10.106;2022-09-09T14:32:28;32.80;5.20
1011;DHT22;494;48.744;10.106;2022-09-09T14:34:57;33.20;5.80
1011;DHT22;494;48.744;10.106;2022-09-09T14:37:27;33.40;5.40
1011;DHT22;494;48.744;10.106;2022-09-09T14:39:58;34.00;4.20
1011;DHT22;494;48.744;10.106;2022-09-09T14:42:26;34.40;5.10
1011;DHT22;494;48.744;10.106;2022-09-09T14:44:57;34.70;4.00
1011;DHT22;494;48.744;10.106;2022-09-09T14:47:25;35.00;4.20
1011;DHT22;494;48.744;10.106;2022-09-09T14:49:55;34.70;3.40
1011;DHT22;494;48.744;10.106;2022-09-09T14:52:24;34.80;3.40
1011;DHT22;494;48.744;10.106;2022-09-09T14:54:52;34.90;3.60
1011;DHT22;494;48.744;10.106;2022-09-09T14:57:21;35.10;3.40
1011;DHT22;494;48.744;10.106;2022-09-09T14:59:49;35.00;3.00
1011;DHT22;494;48.744;10.106;2022-09-09T15:02:18;34.80;2.80
1011;DHT22;494;48.744;10.106;2022-09-09T15:04:46;34.50;3.50
1011;DHT22;494;48.744;10.106;2022-09-09T15:07:18;34.10;3.50
1011;DHT22;494;48.744;10.106;2022-09-09T15:09:47;34.10;4.00
1011;DHT22;494;48.744;10.106;2022-09-09T15:12:15;34.00;3.90
1011;DHT22;494;48.744;10.106;2022-09-09T15:14:45;32.80;5.60
1011;DHT22;494;48.744;10.106;2022-09-09T15:17:15;32.10;6.20
1011;DHT22;494;48.744;10.106;2022-09-09T15:19:43;31.50;5.60
1011;DHT22;494;48.744;10.106;2022-09-09T15:22:12;31.40;6.20
1011;DHT22;494;48.744;10.106;2022-09-09T15:24:42;30.50;7.40
1011;DHT22;494;48.744;10.106;2022-09-09T15:27:10;29.60;8.50
1011;DHT22;494;48.744;10.106;2022-09-09T15:29:41;28.60;8.50
1011;DHT22;494;48.744;10.106;2022-09-09T15:32:11;27.80;9.70
1011;DHT22;494;48.744;10.106;2022-09-09T15:34:39;27.90;10.30
1011;DHT22;494;48.744;10.106;2022-09-09T15:37:09;28.40;8.90
1011;DHT22;494;48.744;10.106;2022-09-09T15:39:41;28.30;8.50
1011;DHT22;494;48.744;10.106;2022-09-09T15:42:10;27.90;8.00
1011;DHT22;494;48.744;10.106;2022-09-09T15:44:39;27.50;9.50
1011;DHT22;494;48.744;10.106;2022-09-09T15:47:11;27.50;9.70
1011;DHT22;494;48.744;10.106;2022-09-09T15:49:40;27.50;9.60
1011;DHT22;494;48.744;10.106;2022-09-09T15:52:10;27.50;9.80
1011;DHT22;494;48.744;10.106;2022-09-09T15:54:38;27.70;9.30
1011;DHT22;494;48.744;10.106;2022-09-09T15:57:12;27.80;8.20
1011;DHT22;494;48.744;10.106;2022-09-09T15:59:41;28.10;9.00
1011;DHT22;494;48.744;10.106;2022-09-09T16:02:12;28.40;8.40
1011;DHT22;494;48.744;10.106;2022-09-09T16:04:40;28.50;8.20
1011;DHT22;494;48.744;10.106;2022-09-09T16:07:09;28.70;7.70
1011;DHT22;494;48.744;10.106;2022-09-09T16:09:38;28.80;7.80
1011;DHT22;494;48.744;10.106;2022-09-09T16:12:07;28.70;8.30
1011;DHT22;494;48.744;10.106;2022-09-09T16:14:39;28.40;8.70
1011;DHT22;494;48.744;10.106;2022-09-09T16:17:08;28.20;10.10
1011;DHT22;494;48.744;10.106;2022-09-09T16:19:37;28.20;9.30
1011;DHT22;494;48.744;10.106;2022-09-09T16:22:05;28.20;9.80
1011;DHT22;494;48.744;10.106;2022-09-09T16:24:36;27.80;10.00
1011;DHT22;494;48.744;10.106;2022-09-09T16:27:05;27.10;10.90
1011;DHT22;494;48.744;10.106;2022-09-09T16:29:35;26.90;11.20
1011;DHT22;494;48.744;10.106;2022-09-09T16:32:03;26.40;11.90
1011;DHT22;494;48.744;10.106;2022-09-09T16:34:32;25.70;12.80
1011;DHT22;494;48.744;10.106;2022-09-09T16:37:01;25.20;14.90
1011;DHT22;494;48.744;10.106;2022-09-09T16:39:29;24.60;14.70
1011;DHT22;494;48.744;10.106;2022-09-09T16:41:58;24.00;16.00
1011;DHT22;494;48.744;10.106;2022-09-09T16:44:27;23.70;16.90
1011;DHT22;494;48.744;10.106;2022-09-09T16:46:57;23.50;17.90
1011;DHT22;494;48.744;10.106;2022-09-09T16:49:27;23.40;19.20
1011;DHT22;494;48.744;10.106;2022-09-09T16:51:58;23.30;19.90
1011;DHT22;494;48.744;10.106;2022-09-09T16:54:27;23.00;18.40
1011;DHT22;494;48.744;10.106;2022-09-09T16:56:56;22.80;20.90
1011;DHT22;494;48.744;10.106;2022-09-09T16:59:25;22.60;21.40
1011;DHT22;494;48.744;10.106;2022-09-09T17:01:54;22.30;23.60
1011;DHT22;494;48.744;10.106;2022-09-09T17:04:26;21.90;25.00